sensor_id;sensor_type;location;lat;lon;timestamp;P1;durP1;ratioP1;P2;durP2;ratioP2
60582;SDS011;46415;47.536;19.066;2022-10-26T00:00:44;3.83;;;3.12;;
60582;SDS011;46415;47.536;19.066;2022-10-26T00:03:47;4.45;;;2.45;;
60582;SDS011;46415;47.536;19.066;2022-10-26T00:06:49;3.42;;;2.17;;
60582;SDS011;46415;47.536;19.066;2022-10-26T00:09:52;3.37;;;2.40;;
60582;SDS011;46415;47.536;19.066;2022-10-26T00:12:54;2.30;;;2.10;;
60582;SDS011;46415;47.536;19.066;2022-10-26T00:15:57;2.35;;;2.15;;
60582;SDS011;46415;47.536;19.066;2022-10-26T00:19:04;4.80;;;2.80;;
60582;SDS011;46415;47.536;19.066;2022-10-26T00:22:07;2.50;;;2.30;;
60582;SDS011;46415;47.536;19.066;2022-10-26T00:25:10;4.03;;;2.92;;
60582;SDS011;46415;47.536;19.066;2022-10-26T00:28:13;3.17;;;2.30;;
60582;SDS011;46415;47.536;19.066;2022-10-26T00:31:15;2.50;;;2.28;;
60582;SDS011;46415;47.536;19.066;2022-10-26T00:34:18;3.08;;;2.25;;
60582;SDS011;46415;47.536;19.066;2022-10-26T00:37:21;3.58;;;2.42;;
60582;SDS011;46415;47.536;19.066;2022-10-26T00:40:27;2.60;;;2.40;;
60582;SDS011;46415;47.536;19.066;2022-10-26T00:46:34;3.22;;;2.87;;
60582;SDS011;46415;47.536;19.066;2022-10-26T00:49:38;3.85;;;2.90;;
60582;SDS011;46415;47.536;19.066;2022-10-26T00:52:41;4.78;;;2.62;;
60582;SDS011;46415;47.536;19.066;2022-10-26T00:55:45;5.30;;;3.08;;
60582;SDS011;46415;47.536;19.066;2022-10-26T00:58:50;4.10;;;2.62;;
60582;SDS011;46415;47.536;19.066;2022-10-26T01:01:53;4.80;;;3.20;;
60582;SDS011;46415;47.536;19.066;2022-10-26T01:04:56;3.12;;;2.83;;
60582;SDS011;46415;47.536;19.066;2022-10-26T01:07:59;4.30;;;3.05;;
60582;SDS011;46415;47.536;19.066;2022-10-26T01:11:03;5.55;;;2.90;;
60582;SDS011;46415;47.536;19.066;2022-10-26T01:14:07;3.08;;;2.28;;
60582;SDS011;46415;47.536;19.066;2022-10-26T01:17:17;5.28;;;2.60;;
60582;SDS011;46415;47.536;19.066;2022-10-26T01:24:21;4.00;;;2.97;;
60582;SDS011;46415;47.536;19.066;2022-10-26T01:30:48;5.05;;;2.85;;
60582;SDS011;46415;47.536;19.066;2022-10-26T01:33:54;4.85;;;3.50;;
60582;SDS011;46415;47.536;19.066;2022-10-26T01:37:10;4.45;;;3.00;;
60582;SDS011;46415;47.536;19.066;2022-10-26T01:40:18;8.30;;;2.75;;
60582;SDS011;46415;47.536;19.066;2022-10-26T01:43:25;3.33;;;2.75;;
60582;SDS011;46415;47.536;19.066;2022-10-26T01:46:38;3.62;;;3.30;;
60582;SDS011;46415;47.536;19.066;2022-10-26T01:49:46;4.15;;;3.05;;
60582;SDS011;46415;47.536;19.066;2022-10-26T01:52:50;6.50;;;3.33;;
60582;SDS011;46415;47.536;19.066;2022-10-26T01:55:54;5.57;;;3.83;;
60582;SDS011;46415;47.536;19.066;2022-10-26T01:59:13;4.32;;;3.45;;
60582;SDS011;46415;47.536;19.066;2022-10-26T02:06:36;2.97;;;2.60;;
60582;SDS011;46415;47.536;19.066;2022-10-26T02:12:43;5.12;;;3.05;;
60582;SDS011;46415;47.536;19.066;2022-10-26T02:16:04;2.97;;;2.78;;
60582;SDS011;46415;47.536;19.066;2022-10-26T02:22:42;6.32;;;3.55;;
60582;SDS011;46415;47.536;19.066;2022-10-26T02:25:49;6.17;;;3.67;;
60582;SDS011;46415;47.536;19.066;2022-10-26T02:28:59;3.65;;;3.08;;
60582;SDS011;46415;47.536;19.066;2022-10-26T02:35:10;3.22;;;2.92;;
60582;SDS011;46415;47.536;19.066;2022-10-26T02:38:15;4.07;;;2.95;;
60582;SDS011;46415;47.536;19.066;2022-10-26T02:41:20;6.53;;;2.87;;
60582;SDS011;46415;47.536;19.066;2022-10-26T02:44:28;4.28;;;3.10;;
60582;SDS011;46415;47.536;19.066;2022-10-26T02:47:34;4.00;;;2.62;;
60582;SDS011;46415;47.536;19.066;2022-10-26T02:54:27;4.80;;;3.22;;
60582;SDS011;46415;47.536;19.066;2022-10-26T02:57:50;5.32;;;2.20;;
60582;SDS011;46415;47.536;19.066;2022-10-26T03:00:58;8.38;;;3.60;;
60582;SDS011;46415;47.536;19.066;2022-10-26T03:04:01;3.55;;;3.25;;
60582;SDS011;46415;47.536;19.066;2022-10-26T03:07:04;2.92;;;2.42;;
60582;SDS011;46415;47.536;19.066;2022-10-26T03:10:07;3.12;;;2.53;;
60582;SDS011;46415;47.536;19.066;2022-10-26T03:13:10;3.55;;;2.60;;
60582;SDS011;46415;47.536;19.066;2022-10-26T03:16:16;4.25;;;2.90;;
60582;SDS011;46415;47.536;19.066;2022-10-26T03:19:20;3.25;;;2.42;;
60582;SDS011;46415;47.536;19.066;2022-10-26T03:22:22;3.10;;;2.80;;
60582;SDS011;46415;47.536;19.066;2022-10-26T03:25:25;2.65;;;2.30;;
60582;SDS011;46415;47.536;19.066;2022-10-26T03:28:28;4.72;;;2.25;;
60582;SDS011;46415;47.536;19.066;2022-10-26T03:31:31;2.95;;;2.62;;
60582;SDS011;46415;47.536;19.066;2022-10-26T03:34:33;4.05;;;3.00;;
60582;SDS011;46415;47.536;19.066;2022-10-26T03:37:36;6.97;;;3.25;;
60582;SDS011;46415;47.536;19.066;2022-10-26T03:40:39;4.55;;;3.37;;
60582;SDS011;46415;47.536;19.066;2022-10-26T03:43:42;3.20;;;2.87;;
60582;SDS011;46415;47.536;19.066;2022-10-26T03:46:44;7.53;;;4.00;;
60582;SDS011;46415;47.536;19.066;2022-10-26T03:49:47;3.55;;;3.22;;
60582;SDS011;46415;47.536;19.066;2022-10-26T03:52:50;9.13;;;3.62;;
60582;SDS011;46415;47.536;19.066;2022-10-26T03:55:53;5.05;;;3.55;;
60582;SDS011;46415;47.536;19.066;2022-10-26T03:58:55;5.28;;;3.72;;
60582;SDS011;46415;47.536;19.066;2022-10-26T04:01:58;4.25;;;3.03;;
60582;SDS011;46415;47.536;19.066;2022-10-26T04:05:01;3.85;;;2.90;;
60582;SDS011;46415;47.536;19.066;2022-10-26T04:08:04;4.03;;;3.37;;
60582;SDS011;46415;47.536;19.066;2022-10-26T04:11:07;3.25;;;2.70;;
60582;SDS011;46415;47.536;19.066;2022-10-26T04:14:09;4.10;;;3.65;;
60582;SDS011;46415;47.536;19.066;2022-10-26T04:17:12;4.22;;;3.42;;
60582;SDS011;46415;47.536;19.066;2022-10-26T04:20:14;8.02;;;3.78;;
60582;SDS011;46415;47.536;19.066;2022-10-26T04:23:18;9.25;;;4.60;;
60582;SDS011;46415;47.536;19.066;2022-10-26T04:26:21;5.37;;;3.72;;
60582;SDS011;46415;47.536;19.066;2022-10-26T04:29:23;9.48;;;4.53;;
60582;SDS011;46415;47.536;19.066;2022-10-26T04:32:26;4.47;;;3.85;;
60582;SDS011;46415;47.536;19.066;2022-10-26T04:35:29;6.97;;;3.37;;
60582;SDS011;46415;47.536;19.066;2022-10-26T04:38:32;4.53;;;3.95;;
60582;SDS011;46415;47.536;19.066;2022-10-26T04:41:34;7.22;;;4.97;;
60582;SDS011;46415;47.536;19.066;2022-10-26T04:44:37;12.35;;;4.20;;
60582;SDS011;46415;47.536;19.066;2022-10-26T04:47:39;4.82;;;3.65;;
60582;SDS011;46415;47.536;19.066;2022-10-26T04:50:42;5.32;;;3.70;;
60582;SDS011;46415;47.536;19.066;2022-10-26T04:53:45;5.57;;;3.50;;
60582;SDS011;46415;47.536;19.066;2022-10-26T04:56:47;7.20;;;3.72;;
60582;SDS011;46415;47.536;19.066;2022-10-26T04:59:50;4.05;;;3.08;;
60582;SDS011;46415;47.536;19.066;2022-10-26T05:02:59;2.90;;;2.70;;
60582;SDS011;46415;47.536;19.066;2022-10-26T05:06:03;4.55;;;3.08;;
60582;SDS011;46415;47.536;19.066;2022-10-26T05:09:06;8.05;;;3.58;;
60582;SDS011;46415;47.536;19.066;2022-10-26T05:12:09;4.22;;;3.40;;
60582;SDS011;46415;47.536;19.066;2022-10-26T05:15:11;6.68;;;3.60;;
60582;SDS011;46415;47.536;19.066;2022-10-26T05:18:16;6.47;;;4.43;;
60582;SDS011;46415;47.536;19.066;2022-10-26T05:21:19;6.03;;;4.90;;
60582;SDS011;46415;47.536;19.066;2022-10-26T05:24:22;13.27;;;5.82;;
60582;SDS011;46415;47.536;19.066;2022-10-26T05:27:24;5.97;;;5.18;;
60582;SDS011;46415;47.536;19.066;2022-10-26T05:30:27;7.87;;;5.35;;
60582;SDS011;46415;47.536;19.066;2022-10-26T05:33:30;7.95;;;6.20;;
60582;SDS011;46415;47.536;19.066;2022-10-26T05:36:33;13.57;;;7.40;;
60582;SDS011;46415;47.536;19.066;2022-10-26T05:39:35;11.27;;;6.40;;
60582;SDS011;46415;47.536;19.066;2022-10-26T05:42:38;11.65;;;7.75;;
60582;SDS011;46415;47.536;19.066;2022-10-26T05:45:41;11.77;;;6.72;;
60582;SDS011;46415;47.536;19.066;2022-10-26T05:48:43;13.60;;;7.65;;
60582;SDS011;46415;47.536;19.066;2022-10-26T05:51:46;12.57;;;7.00;;
60582;SDS011;46415;47.536;19.066;2022-10-26T05:54:48;12.57;;;7.50;;
60582;SDS011;46415;47.536;19.066;2022-10-26T05:57:51;12.13;;;7.28;;
60582;SDS011;46415;47.536;19.066;2022-10-26T06:01:10;15.80;;;7.07;;
60582;SDS011;46415;47.536;19.066;2022-10-26T06:07:25;12.10;;;7.55;;
60582;SDS011;46415;47.536;19.066;2022-10-26T06:10:28;9.15;;;6.90;;
60582;SDS011;46415;47.536;19.066;2022-10-26T06:13:31;9.63;;;7.72;;
60582;SDS011;46415;47.536;19.066;2022-10-26T06:19:57;21.25;;;6.95;;
60582;SDS011;46415;47.536;19.066;2022-10-26T06:30:07;10.45;;;7.07;;
60582;SDS011;46415;47.536;19.066;2022-10-26T06:33:12;12.80;;;8.60;;
60582;SDS011;46415;47.536;19.066;2022-10-26T06:36:31;12.48;;;7.78;;
60582;SDS011;46415;47.536;19.066;2022-10-26T06:39:35;13.98;;;7.80;;
60582;SDS011;46415;47.536;19.066;2022-10-26T06:42:43;9.93;;;6.82;;
60582;SDS011;46415;47.536;19.066;2022-10-26T06:45:46;14.87;;;8.43;;
60582;SDS011;46415;47.536;19.066;2022-10-26T06:49:07;9.90;;;7.03;;
60582;SDS011;46415;47.536;19.066;2022-10-26T06:52:17;9.90;;;6.72;;
60582;SDS011;46415;47.536;19.066;2022-10-26T06:55:27;10.38;;;7.87;;
60582;SDS011;46415;47.536;19.066;2022-10-26T06:58:38;16.42;;;8.18;;
60582;SDS011;46415;47.536;19.066;2022-10-26T07:01:42;17.55;;;8.02;;
60582;SDS011;46415;47.536;19.066;2022-10-26T07:04:44;13.27;;;8.75;;
60582;SDS011;46415;47.536;19.066;2022-10-26T07:07:47;9.10;;;7.30;;
60582;SDS011;46415;47.536;19.066;2022-10-26T07:10:51;11.30;;;8.10;;
60582;SDS011;46415;47.536;19.066;2022-10-26T07:13:53;14.43;;;10.35;;
60582;SDS011;46415;47.536;19.066;2022-10-26T07:16:56;13.02;;;8.73;;
60582;SDS011;46415;47.536;19.066;2022-10-26T07:19:59;14.93;;;7.78;;
60582;SDS011;46415;47.536;19.066;2022-10-26T07:23:01;14.15;;;10.73;;
60582;SDS011;46415;47.536;19.066;2022-10-26T07:26:08;16.50;;;11.05;;
60582;SDS011;46415;47.536;19.066;2022-10-26T07:29:10;15.73;;;11.57;;
60582;SDS011;46415;47.536;19.066;2022-10-26T07:32:14;17.60;;;11.38;;
60582;SDS011;46415;47.536;19.066;2022-10-26T07:35:17;10.23;;;7.75;;
60582;SDS011;46415;47.536;19.066;2022-10-26T07:38:20;17.05;;;11.27;;
60582;SDS011;46415;47.536;19.066;2022-10-26T07:41:22;15.57;;;11.32;;
60582;SDS011;46415;47.536;19.066;2022-10-26T07:44:25;14.20;;;10.93;;
60582;SDS011;46415;47.536;19.066;2022-10-26T07:47:28;13.55;;;10.30;;
60582;SDS011;46415;47.536;19.066;2022-10-26T07:50:30;12.43;;;9.73;;
60582;SDS011;46415;47.536;19.066;2022-10-26T07:53:33;14.65;;;10.93;;
60582;SDS011;46415;47.536;19.066;2022-10-26T07:56:36;16.37;;;13.05;;
60582;SDS011;46415;47.536;19.066;2022-10-26T07:59:38;15.02;;;12.00;;
60582;SDS011;46415;47.536;19.066;2022-10-26T08:02:41;16.37;;;12.20;;
60582;SDS011;46415;47.536;19.066;2022-10-26T08:05:47;15.55;;;11.88;;
60582;SDS011;46415;47.536;19.066;2022-10-26T08:08:52;16.80;;;12.43;;
60582;SDS011;46415;47.536;19.066;2022-10-26T08:11:55;16.75;;;12.27;;
60582;SDS011;46415;47.536;19.066;2022-10-26T08:14:57;14.57;;;11.68;;
60582;SDS011;46415;47.536;19.066;2022-10-26T08:18:00;14.80;;;11.02;;
60582;SDS011;46415;47.536;19.066;2022-10-26T08:21:03;14.98;;;11.70;;
60582;SDS011;46415;47.536;19.066;2022-10-26T08:24:12;15.25;;;10.45;;
60582;SDS011;46415;47.536;19.066;2022-10-26T08:27:15;14.13;;;10.65;;
60582;SDS011;46415;47.536;19.066;2022-10-26T08:30:18;11.65;;;9.05;;
60582;SDS011;46415;47.536;19.066;2022-10-26T08:33:21;14.05;;;10.25;;
60582;SDS011;46415;47.536;19.066;2022-10-26T08:36:26;11.82;;;10.02;;
60582;SDS011;46415;47.536;19.066;2022-10-26T08:39:29;13.32;;;10.40;;
60582;SDS011;46415;47.536;19.066;2022-10-26T08:42:33;11.40;;;10.18;;
60582;SDS011;46415;47.536;19.066;2022-10-26T08:49:22;12.35;;;9.68;;
60582;SDS011;46415;47.536;19.066;2022-10-26T08:52:37;11.85;;;9.95;;
60582;SDS011;46415;47.536;19.066;2022-10-26T08:55:51;11.60;;;9.50;;
60582;SDS011;46415;47.536;19.066;2022-10-26T09:02:07;11.50;;;9.38;;
60582;SDS011;46415;47.536;19.066;2022-10-26T09:05:14;10.35;;;8.70;;
60582;SDS011;46415;47.536;19.066;2022-10-26T09:21:08;11.40;;;8.82;;
60582;SDS011;46415;47.536;19.066;2022-10-26T09:24:33;11.43;;;8.77;;
60582;SDS011;46415;47.536;19.066;2022-10-26T09:27:42;15.07;;;10.00;;
60582;SDS011;46415;47.536;19.066;2022-10-26T09:30:48;12.43;;;9.52;;
60582;SDS011;46415;47.536;19.066;2022-10-26T09:33:52;12.45;;;9.65;;
60582;SDS011;46415;47.536;19.066;2022-10-26T09:36:56;11.27;;;9.50;;
60582;SDS011;46415;47.536;19.066;2022-10-26T09:43:22;12.73;;;9.57;;
60582;SDS011;46415;47.536;19.066;2022-10-26T09:46:30;13.45;;;9.50;;
60582;SDS011;46415;47.536;19.066;2022-10-26T09:49:46;11.77;;;8.80;;
60582;SDS011;46415;47.536;19.066;2022-10-26T09:52:52;12.50;;;8.80;;
60582;SDS011;46415;47.536;19.066;2022-10-26T09:56:14;11.40;;;8.20;;
60582;SDS011;46415;47.536;19.066;2022-10-26T09:59:19;10.25;;;8.57;;
60582;SDS011;46415;47.536;19.066;2022-10-26T10:06:14;9.20;;;7.32;;
60582;SDS011;46415;47.536;19.066;2022-10-26T10:09:21;9.80;;;7.72;;
60582;SDS011;46415;47.536;19.066;2022-10-26T10:12:26;7.82;;;6.87;;
60582;SDS011;46415;47.536;19.066;2022-10-26T10:15:28;7.57;;;6.80;;
60582;SDS011;46415;47.536;19.066;2022-10-26T10:18:31;9.27;;;6.95;;
60582;SDS011;46415;47.536;19.066;2022-10-26T10:21:38;8.80;;;6.53;;
60582;SDS011;46415;47.536;19.066;2022-10-26T10:24:52;7.03;;;6.18;;
60582;SDS011;46415;47.536;19.066;2022-10-26T10:27:56;7.85;;;6.03;;
60582;SDS011;46415;47.536;19.066;2022-10-26T10:31:03;9.27;;;6.07;;
60582;SDS011;46415;47.536;19.066;2022-10-26T10:34:19;6.78;;;5.78;;
60582;SDS011;46415;47.536;19.066;2022-10-26T10:37:36;7.12;;;5.95;;
60582;SDS011;46415;47.536;19.066;2022-10-26T10:40:52;9.23;;;6.47;;
60582;SDS011;46415;47.536;19.066;2022-10-26T10:44:19;9.80;;;7.97;;
60582;SDS011;46415;47.536;19.066;2022-10-26T10:47:29;10.23;;;7.72;;
60582;SDS011;46415;47.536;19.066;2022-10-26T10:50:34;10.43;;;8.00;;
60582;SDS011;46415;47.536;19.066;2022-10-26T10:56:46;11.90;;;8.30;;
60582;SDS011;46415;47.536;19.066;2022-10-26T11:06:27;14.50;;;9.75;;
60582;SDS011;46415;47.536;19.066;2022-10-26T11:09:36;13.98;;;9.50;;
60582;SDS011;46415;47.536;19.066;2022-10-26T11:12:53;21.73;;;10.25;;
60582;SDS011;46415;47.536;19.066;2022-10-26T11:16:02;13.93;;;9.30;;
60582;SDS011;46415;47.536;19.066;2022-10-26T11:22:34;15.07;;;10.63;;
60582;SDS011;46415;47.536;19.066;2022-10-26T11:25:47;18.12;;;10.35;;
60582;SDS011;46415;47.536;19.066;2022-10-26T11:28:59;13.32;;;9.70;;
60582;SDS011;46415;47.536;19.066;2022-10-26T11:35:17;16.95;;;10.13;;
60582;SDS011;46415;47.536;19.066;2022-10-26T11:42:10;14.98;;;10.40;;
60582;SDS011;46415;47.536;19.066;2022-10-26T11:45:30;14.27;;;9.93;;
60582;SDS011;46415;47.536;19.066;2022-10-26T11:48:43;16.08;;;10.77;;
60582;SDS011;46415;47.536;19.066;2022-10-26T11:51:58;15.02;;;10.02;;
60582;SDS011;46415;47.536;19.066;2022-10-26T11:55:10;15.18;;;9.82;;
60582;SDS011;46415;47.536;19.066;2022-10-26T11:58:13;14.95;;;10.15;;
60582;SDS011;46415;47.536;19.066;2022-10-26T12:01:16;15.18;;;10.20;;
60582;SDS011;46415;47.536;19.066;2022-10-26T12:04:20;13.93;;;9.50;;
60582;SDS011;46415;47.536;19.066;2022-10-26T12:07:37;14.23;;;10.02;;
60582;SDS011;46415;47.536;19.066;2022-10-26T12:10:42;17.52;;;10.63;;
60582;SDS011;46415;47.536;19.066;2022-10-26T12:14:13;17.58;;;11.05;;
60582;SDS011;46415;47.536;19.066;2022-10-26T12:17:29;20.60;;;12.23;;
60582;SDS011;46415;47.536;19.066;2022-10-26T12:23:55;18.37;;;11.40;;
60582;SDS011;46415;47.536;19.066;2022-10-26T12:27:03;18.10;;;11.70;;
60582;SDS011;46415;47.536;19.066;2022-10-26T12:33:28;17.98;;;11.18;;
60582;SDS011;46415;47.536;19.066;2022-10-26T12:40:24;17.55;;;11.80;;
60582;SDS011;46415;47.536;19.066;2022-10-26T12:46:59;16.67;;;11.90;;
60582;SDS011;46415;47.536;19.066;2022-10-26T12:53:11;16.17;;;11.60;;
60582;SDS011;46415;47.536;19.066;2022-10-26T12:56:17;14.85;;;11.05;;
60582;SDS011;46415;47.536;19.066;2022-10-26T13:15:59;18.10;;;11.60;;
60582;SDS011;46415;47.536;19.066;2022-10-26T13:19:03;16.40;;;11.85;;
60582;SDS011;46415;47.536;19.066;2022-10-26T13:22:12;16.55;;;11.27;;
60582;SDS011;46415;47.536;19.066;2022-10-26T13:25:26;18.77;;;12.25;;
60582;SDS011;46415;47.536;19.066;2022-10-26T13:34:42;16.92;;;11.85;;
60582;SDS011;46415;47.536;19.066;2022-10-26T13:37:46;18.90;;;11.77;;
60582;SDS011;46415;47.536;19.066;2022-10-26T13:40:52;17.33;;;11.70;;
60582;SDS011;46415;47.536;19.066;2022-10-26T13:44:05;14.75;;;10.45;;
60582;SDS011;46415;47.536;19.066;2022-10-26T13:50:48;16.70;;;11.48;;
60582;SDS011;46415;47.536;19.066;2022-10-26T13:57:20;18.40;;;11.98;;
60582;SDS011;46415;47.536;19.066;2022-10-26T14:00:29;18.10;;;11.75;;
60582;SDS011;46415;47.536;19.066;2022-10-26T14:03:32;17.25;;;11.77;;
60582;SDS011;46415;47.536;19.066;2022-10-26T14:06:36;15.50;;;10.38;;
60582;SDS011;46415;47.536;19.066;2022-10-26T14:09:41;16.67;;;11.20;;
60582;SDS011;46415;47.536;19.066;2022-10-26T14:12:44;15.75;;;11.93;;
60582;SDS011;46415;47.536;19.066;2022-10-26T14:15:46;21.98;;;12.70;;
60582;SDS011;46415;47.536;19.066;2022-10-26T14:18:49;17.65;;;11.98;;
60582;SDS011;46415;47.536;19.066;2022-10-26T14:21:52;20.08;;;11.90;;
60582;SDS011;46415;47.536;19.066;2022-10-26T14:24:57;17.67;;;11.43;;
60582;SDS011;46415;47.536;19.066;2022-10-26T14:28:01;17.17;;;12.60;;
60582;SDS011;46415;47.536;19.066;2022-10-26T14:31:11;18.40;;;11.98;;
60582;SDS011;46415;47.536;19.066;2022-10-26T14:34:22;16.20;;;11.75;;
60582;SDS011;46415;47.536;19.066;2022-10-26T14:37:34;16.80;;;11.52;;
60582;SDS011;46415;47.536;19.066;2022-10-26T14:40:38;19.05;;;11.55;;
60582;SDS011;46415;47.536;19.066;2022-10-26T14:43:41;15.75;;;11.43;;
60582;SDS011;46415;47.536;19.066;2022-10-26T14:46:46;18.20;;;11.98;;
60582;SDS011;46415;47.536;19.066;2022-10-26T14:49:49;14.50;;;11.07;;
60582;SDS011;46415;47.536;19.066;2022-10-26T14:52:56;17.37;;;11.95;;
60582;SDS011;46415;47.536;19.066;2022-10-26T14:56:03;16.62;;;11.02;;
60582;SDS011;46415;47.536;19.066;2022-10-26T15:02:25;17.95;;;11.77;;
60582;SDS011;46415;47.536;19.066;2022-10-26T15:05:29;18.25;;;12.55;;
60582;SDS011;46415;47.536;19.066;2022-10-26T15:08:40;21.55;;;12.23;;
60582;SDS011;46415;47.536;19.066;2022-10-26T15:11:58;16.70;;;11.50;;
60582;SDS011;46415;47.536;19.066;2022-10-26T15:15:08;18.52;;;12.40;;
60582;SDS011;46415;47.536;19.066;2022-10-26T15:18:27;18.83;;;11.68;;
60582;SDS011;46415;47.536;19.066;2022-10-26T15:24:38;12.88;;;9.23;;
60582;SDS011;46415;47.536;19.066;2022-10-26T15:27:41;15.00;;;9.00;;
60582;SDS011;46415;47.536;19.066;2022-10-26T15:30:57;10.77;;;7.95;;
60582;SDS011;46415;47.536;19.066;2022-10-26T15:37:06;8.90;;;6.70;;
60582;SDS011;46415;47.536;19.066;2022-10-26T15:40:09;10.63;;;6.97;;
60582;SDS011;46415;47.536;19.066;2022-10-26T15:43:13;11.75;;;7.53;;
60582;SDS011;46415;47.536;19.066;2022-10-26T15:46:16;11.18;;;6.95;;
60582;SDS011;46415;47.536;19.066;2022-10-26T15:49:19;11.05;;;7.18;;
60582;SDS011;46415;47.536;19.066;2022-10-26T15:52:22;10.65;;;7.78;;
60582;SDS011;46415;47.536;19.066;2022-10-26T15:55:25;12.75;;;7.87;;
60582;SDS011;46415;47.536;19.066;2022-10-26T15:58:30;14.20;;;10.07;;
60582;SDS011;46415;47.536;19.066;2022-10-26T16:01:33;17.27;;;10.77;;
60582;SDS011;46415;47.536;19.066;2022-10-26T16:04:36;17.15;;;11.12;;
60582;SDS011;46415;47.536;19.066;2022-10-26T16:07:39;17.50;;;11.70;;
60582;SDS011;46415;47.536;19.066;2022-10-26T16:10:44;15.25;;;10.85;;
60582;SDS011;46415;47.536;19.066;2022-10-26T16:13:48;16.55;;;10.65;;
60582;SDS011;46415;47.536;19.066;2022-10-26T16:20:02;16.55;;;11.57;;
60582;SDS011;46415;47.536;19.066;2022-10-26T16:23:10;16.50;;;11.45;;
60582;SDS011;46415;47.536;19.066;2022-10-26T16:26:13;15.65;;;11.50;;
60582;SDS011;46415;47.536;19.066;2022-10-26T16:29:16;17.25;;;11.15;;
60582;SDS011;46415;47.536;19.066;2022-10-26T16:32:19;17.58;;;11.50;;
60582;SDS011;46415;47.536;19.066;2022-10-26T16:35:22;16.92;;;11.02;;
60582;SDS011;46415;47.536;19.066;2022-10-26T16:38:25;15.13;;;11.00;;
60582;SDS011;46415;47.536;19.066;2022-10-26T16:41:29;19.48;;;12.05;;
60582;SDS011;46415;47.536;19.066;2022-10-26T16:44:34;18.17;;;10.93;;
60582;SDS011;46415;47.536;19.066;2022-10-26T16:47:38;18.17;;;11.43;;
60582;SDS011;46415;47.536;19.066;2022-10-26T16:50:41;18.02;;;11.55;;
60582;SDS011;46415;47.536;19.066;2022-10-26T16:53:48;21.00;;;12.13;;
60582;SDS011;46415;47.536;19.066;2022-10-26T16:56:53;16.77;;;11.27;;
60582;SDS011;46415;47.536;19.066;2022-10-26T16:59:56;14.55;;;11.00;;
60582;SDS011;46415;47.536;19.066;2022-10-26T17:03:00;15.80;;;11.50;;
60582;SDS011;46415;47.536;19.066;2022-10-26T17:06:05;19.42;;;12.48;;
60582;SDS011;46415;47.536;19.066;2022-10-26T17:09:09;16.65;;;11.00;;
60582;SDS011;46415;47.536;19.066;2022-10-26T17:12:15;16.27;;;11.43;;
60582;SDS011;46415;47.536;19.066;2022-10-26T17:15:18;15.13;;;10.70;;
60582;SDS011;46415;47.536;19.066;2022-10-26T17:18:23;17.62;;;11.18;;
60582;SDS011;46415;47.536;19.066;2022-10-26T17:21:27;21.83;;;12.23;;
60582;SDS011;46415;47.536;19.066;2022-10-26T17:24:33;19.48;;;11.95;;
60582;SDS011;46415;47.536;19.066;2022-10-26T17:27:37;19.65;;;11.68;;
60582;SDS011;46415;47.536;19.066;2022-10-26T17:30:48;16.95;;;11.10;;
60582;SDS011;46415;47.536;19.066;2022-10-26T17:33:50;18.92;;;11.27;;
60582;SDS011;46415;47.536;19.066;2022-10-26T17:36:54;16.92;;;11.25;;
60582;SDS011;46415;47.536;19.066;2022-10-26T17:39:57;21.87;;;12.13;;
60582;SDS011;46415;47.536;19.066;2022-10-26T17:43:00;16.95;;;11.65;;
60582;SDS011;46415;47.536;19.066;2022-10-26T17:46:04;17.33;;;11.65;;
60582;SDS011;46415;47.536;19.066;2022-10-26T17:49:10;16.67;;;11.07;;
60582;SDS011;46415;47.536;19.066;2022-10-26T17:52:13;15.55;;;10.88;;
60582;SDS011;46415;47.536;19.066;2022-10-26T17:55:17;19.23;;;11.93;;
60582;SDS011;46415;47.536;19.066;2022-10-26T17:58:20;16.65;;;10.73;;
60582;SDS011;46415;47.536;19.066;2022-10-26T18:01:24;16.25;;;9.80;;
60582;SDS011;46415;47.536;19.066;2022-10-26T18:04:28;13.55;;;10.23;;
60582;SDS011;46415;47.536;19.066;2022-10-26T18:07:31;19.17;;;10.85;;
60582;SDS011;46415;47.536;19.066;2022-10-26T18:10:34;13.77;;;9.48;;
60582;SDS011;46415;47.536;19.066;2022-10-26T18:13:40;13.30;;;9.73;;
60582;SDS011;46415;47.536;19.066;2022-10-26T18:16:44;16.45;;;10.85;;
60582;SDS011;46415;47.536;19.066;2022-10-26T18:19:47;14.00;;;9.90;;
60582;SDS011;46415;47.536;19.066;2022-10-26T18:22:51;13.93;;;9.43;;
60582;SDS011;46415;47.536;19.066;2022-10-26T18:26:04;16.27;;;10.18;;
60582;SDS011;46415;47.536;19.066;2022-10-26T18:29:16;14.05;;;10.00;;
60582;SDS011;46415;47.536;19.066;2022-10-26T18:32:18;12.85;;;8.55;;
60582;SDS011;46415;47.536;19.066;2022-10-26T18:35:22;11.95;;;8.98;;
60582;SDS011;46415;47.536;19.066;2022-10-26T18:38:25;14.85;;;9.55;;
60582;SDS011;46415;47.536;19.066;2022-10-26T18:41:28;12.88;;;8.20;;
60582;SDS011;46415;47.536;19.066;2022-10-26T18:44:31;12.23;;;8.07;;
60582;SDS011;46415;47.536;19.066;2022-10-26T18:47:34;13.13;;;8.05;;
60582;SDS011;46415;47.536;19.066;2022-10-26T18:50:37;13.60;;;8.23;;
60582;SDS011;46415;47.536;19.066;2022-10-26T18:53:41;11.20;;;8.18;;
60582;SDS011;46415;47.536;19.066;2022-10-26T18:56:46;12.57;;;8.45;;
60582;SDS011;46415;47.536;19.066;2022-10-26T18:59:50;11.15;;;8.32;;
60582;SDS011;46415;47.536;19.066;2022-10-26T19:02:56;11.98;;;8.50;;
60582;SDS011;46415;47.536;19.066;2022-10-26T19:06:10;12.43;;;8.60;;
60582;SDS011;46415;47.536;19.066;2022-10-26T19:09:14;12.25;;;8.35;;
60582;SDS011;46415;47.536;19.066;2022-10-26T19:12:19;11.80;;;7.22;;
60582;SDS011;46415;47.536;19.066;2022-10-26T19:15:22;10.00;;;7.40;;
60582;SDS011;46415;47.536;19.066;2022-10-26T19:18:25;11.12;;;7.80;;
60582;SDS011;46415;47.536;19.066;2022-10-26T19:21:29;10.35;;;7.60;;
60582;SDS011;46415;47.536;19.066;2022-10-26T19:24:33;15.40;;;7.28;;
60582;SDS011;46415;47.536;19.066;2022-10-26T19:27:36;9.50;;;8.32;;
60582;SDS011;46415;47.536;19.066;2022-10-26T19:30:39;10.20;;;7.00;;
60582;SDS011;46415;47.536;19.066;2022-10-26T19:33:42;8.48;;;6.90;;
60582;SDS011;46415;47.536;19.066;2022-10-26T19:36:45;12.75;;;8.35;;
60582;SDS011;46415;47.536;19.066;2022-10-26T19:39:49;12.15;;;8.73;;
60582;SDS011;46415;47.536;19.066;2022-10-26T19:42:52;12.20;;;9.27;;
60582;SDS011;46415;47.536;19.066;2022-10-26T19:45:56;10.65;;;6.87;;
60582;SDS011;46415;47.536;19.066;2022-10-26T19:49:00;14.13;;;8.88;;
60582;SDS011;46415;47.536;19.066;2022-10-26T19:52:03;11.90;;;8.65;;
60582;SDS011;46415;47.536;19.066;2022-10-26T19:55:07;10.38;;;6.70;;
60582;SDS011;46415;47.536;19.066;2022-10-26T19:58:12;11.95;;;8.88;;
60582;SDS011;46415;47.536;19.066;2022-10-26T20:01:15;11.07;;;9.13;;
60582;SDS011;46415;47.536;19.066;2022-10-26T20:04:18;10.07;;;7.57;;
60582;SDS011;46415;47.536;19.066;2022-10-26T20:07:21;11.45;;;8.68;;
60582;SDS011;46415;47.536;19.066;2022-10-26T20:10:24;9.00;;;6.30;;
60582;SDS011;46415;47.536;19.066;2022-10-26T20:13:27;11.50;;;9.50;;
60582;SDS011;46415;47.536;19.066;2022-10-26T20:16:30;12.55;;;9.75;;
60582;SDS011;46415;47.536;19.066;2022-10-26T20:19:34;11.95;;;8.80;;
60582;SDS011;46415;47.536;19.066;2022-10-26T20:22:37;12.43;;;8.02;;
60582;SDS011;46415;47.536;19.066;2022-10-26T20:25:43;12.43;;;10.32;;
60582;SDS011;46415;47.536;19.066;2022-10-26T20:28:48;16.77;;;10.65;;
60582;SDS011;46415;47.536;19.066;2022-10-26T20:31:53;16.23;;;11.73;;